Flight Track Log - Related Links

Times and Time Zones

All times are in EDT time to prevent confusion due to time zone crossing. See the EGF4269 flight status page for this flight to view local times or setup timezone preferences in your user account.

Time Position Orientation Groundspeed Altitude Reporting Facility
EDT Latitude Longitude Course Direction KTS MPH feet Rate Location/Type
Thu 10:38:56 PM 42.0167 -87.9500 86° East 191 220 2,700  Level Chicago TRACON
Thu 10:39:56 PM 42.0833 -87.9333 11° North 243 280 5,100 2,613 Climbing Chicago TRACON
Thu 10:40:00 PM 42.0382 -87.4964 83° East  Level FlightAware Approximate
Thu 10:41:00 PM 42.0515 -87.3567 78° East  Level FlightAware Approximate
Thu 10:41:00 PM 42.1311 -87.8650 47° Northeast 268 308 8,100  Level Chicago Center
Thu 10:42:00 PM 42.0728 -87.2187 78° East  Level FlightAware Approximate
Thu 10:42:01 PM 42.1303 -87.7542 91° East 297 342 10,300  Level Chicago Center
Thu 10:43:00 PM 42.0948 -87.0810 77° East  Level FlightAware Approximate
Thu 10:43:02 PM 42.1253 -87.6358 93° East 313 360 12,600  Level Chicago Center
Thu 10:44:00 PM 42.1035 -86.9823 86° East  Level FlightAware Approximate
Thu 10:44:04 PM 42.1228 -87.5042 91° East 350 403 13,800  Level Chicago Center
Thu 10:45:05 PM 42.1192 -87.3617 92° East 379 436 14,900 689 Climbing Chicago Center
Thu 10:46:06 PM 42.1153 -87.2061 92° East 413 475 15,200 787 Climbing Chicago Center
Thu 10:47:07 PM 42.1108 -87.0161 92° East 423 487 16,500 934 Climbing Chicago Center
Thu 10:48:08 PM 42.1183 -86.8589 86° East 423 487 17,100 244 Climbing Chicago Center
Thu 10:49:10 PM 42.1247 -86.6975 87° East 430 495 17,000 -683 Descending Chicago Center
Thu 10:50:11 PM 42.1308 -86.5539 87° East 431 496 15,700 -1,623 Descending Chicago Center
Thu 10:51:12 PM 42.1344 -86.3983 88° East 420 483 13,700 -1,574 Descending Chicago Center
Thu 10:52:13 PM 42.1408 -86.2503 87° East 401 461 12,500 -1,525 Descending Chicago Center
Thu 10:53:14 PM 42.1483 -86.0819 87° East 375 432 10,600 -1,770 Descending Chicago Center
Thu 10:54:15 PM 42.1625 -85.9658 81° East 324 373 8,900 -2,311 Descending Chicago Center
Thu 10:55:16 PM 42.1678 -85.8628 86° East 283 326 5,900 -2,732 Descending Chicago Center
Thu 10:56:18 PM 42.1764 -85.7647 83° East 270 311 3,300 -2,516 Descending Chicago Center

Login

Don't have an account? Register now (free) for customized features, flight alerts, and more!